Time;durP1;ratioP1;P1;durP2;ratioP2;P2;SDS_P1;SDS_P2;PMS_P1;PMS_P2;Temp;Humidity;BMP_temperature;BMP_pressure;BME280_temperature;BME280_humidity;BME280_pressure;Samples;Min_cycle;Max_cycle;Signal;HPM_P1;HPM_P2
2021/06/15 00:02:20;;;;;;;24.27;11.73;;;;;;;9.19;69.40;99284.63;2192236;81;20963;-78
2021/06/15 00:05:21;;;;;;;20.13;11.90;;;;;;;9.13;69.58;99283.18;2192205;81;20963;-80
2021/06/15 00:08:22;;;;;;;24.27;11.93;;;;;;;9.08;69.84;99283.48;2192195;80;20975;-80
2021/06/15 00:11:23;;;;;;;20.07;11.10;;;;;;;9.02;69.86;99279.02;2192166;81;20924;-79
2021/06/15 00:14:23;;;;;;;18.37;11.67;;;;;;;8.97;69.87;99276.71;2192286;81;20884;-79
2021/06/15 00:17:24;;;;;;;17.23;11.43;;;;;;;8.91;70.00;99273.95;2192327;81;20896;-79
2021/06/15 00:20:26;;;;;;;19.33;10.50;;;;;;;8.85;70.14;99277.28;2192394;81;20912;-79
2021/06/15 00:23:27;;;;;;;66.10;14.93;;;;;;;8.83;70.13;99285.90;2192545;81;20992;-79
2021/06/15 00:26:27;;;;;;;21.23;11.53;;;;;;;8.78;70.43;99284.48;2191840;81;20991;-79
2021/06/15 00:29:29;;;;;;;17.00;10.90;;;;;;;8.75;70.45;99293.51;2192211;81;21039;-78
2021/06/15 00:32:30;;;;;;;17.17;10.50;;;;;;;8.71;70.42;99292.09;2192172;81;21018;-78
2021/06/15 00:35:31;;;;;;;18.73;11.77;;;;;;;8.66;70.29;99278.04;2192083;81;20984;-78
2021/06/15 00:38:32;;;;;;;16.60;12.47;;;;;;;8.58;70.31;99273.94;2192144;80;20979;-78
2021/06/15 00:41:33;;;;;;;18.23;9.93;;;;;;;8.53;70.53;99275.12;2192047;81;20927;-78
2021/06/15 00:44:34;;;;;;;13.93;10.20;;;;;;;8.51;70.63;99269.41;2192118;81;20930;-78
2021/06/15 00:47:35;;;;;;;14.90;10.13;;;;;;;8.49;70.69;99261.98;2191969;81;20950;-79
2021/06/15 00:50:35;;;;;;;12.40;9.87;;;;;;;8.48;70.69;99266.31;2192046;81;20939;-80
2021/06/15 00:53:37;;;;;;;15.30;9.70;;;;;;;8.45;70.63;99257.54;2192071;81;20923;-79
2021/06/15 00:56:38;;;;;;;150.50;104.13;;;;;;;8.41;70.71;99261.78;2192384;81;20951;-79
2021/06/15 00:59:39;;;;;;;63.23;43.37;;;;;;;9.52;75.53;99255.45;2192198;81;20985;-79
2021/06/15 01:02:40;;;;;;;20.33;14.73;;;;;;;11.04;69.23;99248.50;2192230;81;20913;-78
2021/06/15 01:05:41;;;;;;;15.93;11.20;;;;;;;10.47;66.92;99245.34;2192087;81;20976;-78
2021/06/15 01:08:42;;;;;;;16.00;9.53;;;;;;;9.94;66.71;99252.05;2192049;81;20983;-79
2021/06/15 01:11:50;;;;;;;17.40;9.40;;;;;;;9.56;67.01;99248.62;2192072;81;20975;-79
2021/06/15 01:14:45;;;;;;;11.07;8.43;;;;;;;9.26;67.45;99252.67;2191198;81;20995;-79
2021/06/15 01:17:46;;;;;;;16.80;9.13;;;;;;;9.00;67.67;99251.17;2192119;81;21331;-78
2021/06/15 01:20:47;;;;;;;15.73;10.27;;;;;;;8.78;68.12;99245.44;2192157;81;21335;-78
2021/06/15 01:23:48;;;;;;;15.80;8.10;;;;;;;8.62;68.53;99249.76;2192209;81;20928;-80
2021/06/15 01:26:49;;;;;;;12.00;8.00;;;;;;;8.49;68.94;99253.76;2183568;81;20960;-79
2021/06/15 01:29:50;;;;;;;8.87;7.97;;;;;;;8.39;69.06;99253.47;2168813;82;21044;-79
2021/06/15 01:32:51;;;;;;;12.20;8.20;;;;;;;8.29;69.41;99250.59;2168998;82;20919;-79
2021/06/15 01:35:52;;;;;;;12.17;8.67;;;;;;;8.20;69.62;99249.04;2168789;82;21005;-78
2021/06/15 01:38:53;;;;;;;20.83;8.27;;;;;;;8.13;69.73;99257.52;2168896;82;20995;-81
2021/06/15 01:41:54;;;;;;;11.37;7.83;;;;;;;8.07;69.88;99259.94;2168819;82;20992;-79
2021/06/15 01:44:55;;;;;;;12.73;8.33;;;;;;;8.02;69.84;99256.74;2168544;82;20956;-79
2021/06/15 01:47:58;;;;;;;12.73;7.73;;;;;;;7.91;69.99;99248.22;2168788;82;21019;-79
2021/06/15 01:50:59;;;;;;;12.27;7.67;;;;;;;7.83;70.17;99244.94;2168879;82;21024;-78
2021/06/15 01:54:00;;;;;;;9.73;7.70;;;;;;;7.77;70.28;99240.41;2168769;82;20984;-78
2021/06/15 01:57:01;;;;;;;14.90;7.10;;;;;;;7.70;70.50;99235.88;2168954;82;21261;-78
2021/06/15 02:00:02;;;;;;;10.53;6.90;;;;;;;7.70;70.73;99234.99;2168863;82;20977;-81
2021/06/15 02:03:03;;;;;;;13.90;7.20;;;;;;;7.62;70.81;99238.25;2168844;82;20976;-79
2021/06/15 02:06:04;;;;;;;15.90;7.60;;;;;;;7.61;70.83;99240.80;2168866;82;20989;-78
2021/06/15 02:09:06;;;;;;;16.00;8.37;;;;;;;7.56;70.78;99238.06;2168460;81;20987;-77
2021/06/15 02:12:08;;;;;;;9.47;7.33;;;;;;;7.55;71.02;99234.13;2168940;82;21027;-78
2021/06/15 02:15:10;;;;;;;9.57;6.77;;;;;;;7.53;70.87;99237.97;2168960;82;20897;-82
2021/06/15 02:18:11;;;;;;;9.47;6.83;;;;;;;7.48;70.71;99237.38;2168974;82;20972;-78
2021/06/15 02:21:15;;;;;;;13.60;7.30;;;;;;;7.44;70.88;99228.60;2168873;82;20925;-78
2021/06/15 02:24:17;;;;;;;11.12;7.22;;;;;;;7.41;71.02;99228.52;2168851;82;20972;-77
2021/06/15 02:27:18;;;;;;;8.87;7.00;;;;;;;7.35;70.94;99231.80;2178896;81;21007;-80
2021/06/15 02:30:19;;;;;;;10.27;7.10;;;;;;;7.32;71.00;99229.11;2192170;81;20900;-79
2021/06/15 02:33:20;;;;;;;13.97;7.03;;;;;;;7.30;70.98;99229.48;2192412;81;21300;-80
2021/06/15 02:36:21;;;;;;;14.27;7.07;;;;;;;7.28;71.01;99227.26;2192092;81;20967;-78
2021/06/15 02:39:22;;;;;;;33.13;23.93;;;;;;;7.27;70.94;99220.72;2191900;80;20979;-79
2021/06/15 02:42:23;;;;;;;32.47;23.47;;;;;;;7.25;71.00;99223.69;2192218;81;20911;-78
2021/06/15 02:45:24;;;;;;;22.07;9.47;;;;;;;7.27;70.73;99224.61;2192288;81;20972;-77
2021/06/15 02:48:26;;;;;;;9.70;7.20;;;;;;;7.29;70.80;99225.13;2192072;81;20992;-80
2021/06/15 02:51:28;;;;;;;35.87;8.00;;;;;;;7.29;70.80;99225.13;2192176;81;20920;-77
2021/06/15 02:54:29;;;;;;;11.70;5.90;;;;;;;7.40;71.15;99230.64;2192090;81;20963;-79
2021/06/15 02:57:30;;;;;;;8.63;6.30;;;;;;;7.44;70.90;99238.11;2192212;81;20959;-80
2021/06/15 03:00:31;;;;;;;12.80;7.27;;;;;;;7.44;70.79;99239.41;2192195;81;20920;-78
2021/06/15 03:03:32;;;;;;;11.40;6.80;;;;;;;7.49;70.98;99245.21;2192277;81;20936;-79
2021/06/15 03:06:33;;;;;;;11.47;6.77;;;;;;;7.50;70.91;99252.17;2192113;81;20963;-79
2021/06/15 03:09:34;;;;;;;13.27;7.43;;;;;;;7.51;70.77;99250.03;2191791;80;20975;-78
2021/06/15 03:12:35;;;;;;;10.87;7.13;;;;;;;7.54;70.83;99253.14;2192106;81;20927;-78
2021/06/15 03:15:36;;;;;;;16.53;6.70;;;;;;;7.56;70.89;99257.97;2192055;81;21303;-80
2021/06/15 03:18:37;;;;;;;12.73;6.90;;;;;;;7.59;70.97;99255.05;2192297;81;20923;-77
2021/06/15 03:21:38;;;;;;;10.70;6.67;;;;;;;7.67;70.95;99256.57;2192018;81;21292;-78
2021/06/15 03:24:39;;;;;;;21.30;11.47;;;;;;;7.77;70.99;99260.32;2192149;81;21137;-77
2021/06/15 03:27:40;;;;;;;16.23;6.90;;;;;;;7.86;70.97;99256.72;2191773;81;21344;-77
2021/06/15 03:30:42;;;;;;;11.60;6.37;;;;;;;7.94;70.94;99253.92;2192167;81;20935;-79
2021/06/15 03:33:43;;;;;;;8.50;6.43;;;;;;;8.01;70.73;99254.98;2192203;81;21268;-77
2021/06/15 03:36:46;;;;;;;10.43;6.93;;;;;;;8.03;70.68;99258.50;2192031;81;21391;-79
2021/06/15 03:39:47;;;;;;;10.37;8.10;;;;;;;8.05;70.74;99255.53;2191855;80;21094;-80
2021/06/15 03:42:48;;;;;;;7.93;6.30;;;;;;;8.11;71.05;99248.78;2192144;81;21004;-79
2021/06/15 03:45:49;;;;;;;8.70;6.63;;;;;;;8.17;70.99;99243.75;2192192;81;20912;-78
2021/06/15 03:48:50;;;;;;;104.00;63.57;;;;;;;8.22;71.18;99243.46;2192052;81;21379;-80
2021/06/15 03:51:51;;;;;;;113.57;29.40;;;;;;;8.36;71.53;99248.19;2193027;81;20976;-79
2021/06/15 03:54:52;;;;;;;117.13;58.07;;;;;;;10.58;72.25;99227.69;2192400;81;20992;-81
2021/06/15 03:57:53;;;;;;;21.27;12.63;;;;;;;11.62;69.79;99227.62;2192632;81;21291;-81
2021/06/15 04:00:54;;;;;;;70.40;41.30;;;;;;;13.63;66.42;99223.15;2192529;81;20943;-81
2021/06/15 04:03:55;;;;;;;29.77;14.47;;;;;;;15.24;62.36;99219.67;2192649;81;20967;-80
2021/06/15 04:06:57;;;;;;;86.40;52.55;;;;;;;16.43;59.73;99217.14;2192700;81;20968;-80
2021/06/15 04:09:58;;;;;;;81.80;46.35;;;;;;;17.16;56.74;99219.31;2192659;81;20995;-81
2021/06/15 04:12:59;;;;;;;16.67;8.15;;;;;;;17.78;53.54;99215.23;2192640;81;21036;-82
2021/06/15 04:16:01;;;;;;;29.20;22.30;;;;;;;17.65;52.19;99217.11;2192822;81;20931;-81
2021/06/15 04:19:02;;;;;;;986.67;726.98;;;;;;;17.50;51.61;99222.55;2192495;81;21311;-80
2021/06/15 04:22:07;;;;;;;15.25;5.97;;;;;;;17.23;51.74;99215.73;2192547;81;21007;-81
2021/06/15 04:25:10;;;;;;;288.62;166.05;;;;;;;17.03;52.08;99222.50;2192420;81;20928;-81
2021/06/15 04:28:11;;;;;;;250.90;178.20;;;;;;;16.97;52.46;99219.03;2192348;81;20995;-81
2021/06/15 04:31:13;;;;;;;277.85;27.27;;;;;;;16.99;53.05;99214.63;2192566;81;20903;-81
2021/06/15 04:34:13;;;;;;;8.20;6.08;;;;;;;16.95;53.55;99220.81;2192251;81;20962;-81
2021/06/15 04:37:15;;;;;;;38.08;9.68;;;;;;;17.00;53.87;99226.48;2192470;80;21039;-83
2021/06/15 04:40:16;;;;;;;14.33;7.12;;;;;;;17.04;54.10;99232.60;2192868;81;21292;-83
2021/06/15 04:43:17;;;;;;;9.20;6.53;;;;;;;17.08;54.62;99225.98;2192264;81;20971;-81
2021/06/15 04:46:18;;;;;;;1605.45;806.53;;;;;;;17.23;55.06;99230.24;2191924;81;21007;-80
2021/06/15 04:49:19;;;;;;;327.62;34.20;;;;;;;17.28;55.45;99229.76;2191573;81;20995;-81
2021/06/15 04:52:20;;;;;;;215.32;20.77;;;;;;;17.39;54.74;99226.61;2191948;81;21337;-82
2021/06/15 04:55:21;;;;;;;57.38;11.18;;;;;;;17.68;54.60;99223.70;2192263;81;20951;-81
2021/06/15 04:58:22;;;;;;;21.27;9.50;;;;;;;17.89;54.54;99229.64;2191877;81;20927;-79
2021/06/15 05:01:24;;;;;;;16.62;8.53;;;;;;;17.89;53.75;99232.28;2192165;81;20919;-81
2021/06/15 05:04:24;;;;;;;14.50;8.70;;;;;;;17.69;54.01;99232.05;2191523;81;20924;-78
2021/06/15 05:07:26;;;;;;;32.13;10.70;;;;;;;17.57;54.30;99237.43;2191749;80;21010;-81
2021/06/15 05:10:27;;;;;;;20.95;10.68;;;;;;;17.13;54.52;99246.59;2191364;81;21007;-80
2021/06/15 05:13:28;;;;;;;53.68;12.85;;;;;;;16.86;55.42;99247.67;2191856;81;21098;-80
2021/06/15 05:16:30;;;;;;;25.35;11.95;;;;;;;17.03;56.19;99248.00;2191759;81;20995;-80
2021/06/15 05:19:31;;;;;;;22.85;9.80;;;;;;;17.36;55.35;99246.42;2191914;81;20990;-81
2021/06/15 05:22:33;;;;;;;32.13;11.48;;;;;;;17.30;55.23;99250.85;2192533;81;20943;-81
2021/06/15 05:25:34;;;;;;;72.00;13.03;;;;;;;17.34;55.48;99250.84;2192708;81;20974;-81
2021/06/15 05:28:35;;;;;;;12.43;9.13;;;;;;;17.37;55.57;99252.58;2178846;81;20968;-82
2021/06/15 05:31:36;;;;;;;120.75;15.43;;;;;;;17.46;54.44;99253.37;2169922;81;20904;-80
2021/06/15 05:34:37;;;;;;;23.40;9.60;;;;;;;17.49;54.06;99256.42;2169813;82;20992;-81
2021/06/15 05:37:40;;;;;;;13.95;8.88;;;;;;;17.65;53.90;99253.19;2170114;79;20920;-80
2021/06/15 05:40:41;;;;;;;13.00;9.23;;;;;;;17.71;53.76;99252.71;2170293;81;20900;-80
2021/06/15 05:43:42;;;;;;;13.43;9.05;;;;;;;18.03;54.28;99259.41;2169998;82;20991;-80
2021/06/15 05:46:42;;;;;;;10.55;8.28;;;;;;;18.32;53.96;99261.28;2169841;82;20964;-80
2021/06/15 05:49:43;;;;;;;15.90;8.63;;;;;;;18.59;53.14;99262.69;2170575;82;20951;-81
2021/06/15 05:52:45;;;;;;;16.12;8.50;;;;;;;18.89;52.87;99269.33;2170361;82;20941;-81
2021/06/15 05:55:46;;;;;;;13.98;8.10;;;;;;;19.14;52.12;99271.18;2170378;81;20930;-80
2021/06/15 05:58:48;;;;;;;12.80;8.18;;;;;;;19.26;52.26;99274.95;2170322;82;21064;-80
2021/06/15 06:01:49;;;;;;;11.93;7.78;;;;;;;19.39;51.86;99273.85;2170640;82;20959;-81
2021/06/15 06:08:08;;;;;;;10.20;7.10;;;;;;;19.68;51.08;99278.67;2166314;82;21406;-79
2021/06/15 06:11:08;;;;;;;13.98;7.33;;;;;;;19.92;51.17;99277.34;2168860;82;20927;-80
2021/06/15 06:14:09;;;;;;;14.07;6.80;;;;;;;20.38;50.66;99285.73;2169634;82;20944;-80
2021/06/15 06:17:10;;;;;;;11.55;6.78;;;;;;;20.56;49.58;99276.09;2170050;82;20948;-80
2021/06/15 06:20:11;;;;;;;9.75;6.60;;;;;;;20.82;47.94;99278.20;2169920;81;20947;-79
2021/06/15 06:23:12;;;;;;;6.67;5.50;;;;;;;20.72;47.62;99271.33;2170238;82;20996;-79
2021/06/15 06:26:13;;;;;;;9.28;5.12;;;;;;;20.77;46.95;99273.42;2170539;82;20952;-81
2021/06/15 06:29:14;;;;;;;10.60;6.22;;;;;;;21.04;46.02;99272.40;2174214;81;21066;-80
2021/06/15 06:32:15;;;;;;;9.10;5.45;;;;;;;21.25;46.95;99270.59;2176069;81;20980;-80
2021/06/15 06:35:16;;;;;;;8.08;5.10;;;;;;;21.52;46.30;99273.00;2176203;82;20960;-80
2021/06/15 06:38:18;;;;;;;7.75;5.10;;;;;;;22.07;45.92;99268.48;2176606;80;20991;-80
2021/06/15 06:41:19;;;;;;;17.12;6.95;;;;;;;22.39;45.11;99270.67;2176739;82;20943;-80
2021/06/15 06:44:20;;;;;;;8.73;5.08;;;;;;;22.91;44.22;99267.37;2176229;82;21301;-80
2021/06/15 06:47:21;;;;;;;8.05;5.35;;;;;;;23.04;43.16;99269.18;2176060;82;20912;-80
2021/06/15 06:50:24;;;;;;;7.30;4.60;;;;;;;23.28;42.58;99265.72;2176884;82;20968;-81
2021/06/15 06:53:25;;;;;;;6.67;5.80;;;;;;;23.43;40.74;99267.03;2176488;81;20935;-81
2021/06/15 06:56:26;;;;;;;8.95;4.75;;;;;;;23.44;40.71;99267.45;2176015;82;20944;-81
2021/06/15 06:59:27;;;;;;;14.80;7.08;;;;;;;23.86;41.31;99265.59;2176409;82;20893;-82
2021/06/15 07:02:28;;;;;;;6.65;4.55;;;;;;;24.12;39.31;99267.73;2176374;82;20991;-80
2021/06/15 07:05:29;;;;;;;9.25;4.30;;;;;;;23.88;37.88;99268.61;2176299;82;20896;-80
2021/06/15 07:08:30;;;;;;;7.12;4.70;;;;;;;23.69;37.34;99270.17;2176403;78;21056;-80
2021/06/15 07:11:31;;;;;;;7.10;4.53;;;;;;;23.63;38.35;99273.05;2176376;82;20892;-80
2021/06/15 07:14:32;;;;;;;8.08;4.25;;;;;;;23.74;36.71;99274.42;2176660;82;21108;-81
2021/06/15 07:17:33;;;;;;;10.28;3.75;;;;;;;23.67;36.84;99266.23;2177198;82;20920;-81
2021/06/15 07:20:34;;;;;;;6.08;3.87;;;;;;;23.70;35.91;99262.13;2176757;82;20916;-81
2021/06/15 07:23:36;;;;;;;12.73;4.12;;;;;;;23.96;36.63;99258.55;2176584;82;20988;-80
2021/06/15 07:26:37;;;;;;;6.42;4.00;;;;;;;24.22;36.21;99265.59;2176912;82;21028;-81
2021/06/15 07:29:40;;;;;;;8.30;3.60;;;;;;;24.63;35.66;99268.10;2170862;82;21451;-81
2021/06/15 07:32:41;;;;;;;7.50;3.12;;;;;;;24.96;34.00;99261.03;2169552;82;21373;-80
2021/06/15 07:35:42;;;;;;;7.12;3.30;;;;;;;25.07;33.52;99262.37;2169497;82;21103;-81
2021/06/15 07:38:43;;;;;;;6.58;4.30;;;;;;;25.20;34.12;99260.10;2169820;81;21427;-81
2021/06/15 07:41:44;;;;;;;14.30;3.95;;;;;;;25.33;34.01;99261.34;2169394;82;20971;-80
2021/06/15 07:44:45;;;;;;;11.53;4.83;;;;;;;25.51;33.49;99257.02;2169560;82;20940;-80
2021/06/15 07:47:46;;;;;;;9.63;4.30;;;;;;;25.57;33.17;99254.09;2170000;82;20936;-81
2021/06/15 07:50:47;;;;;;;6.85;3.55;;;;;;;25.65;33.00;99259.11;2168941;82;20932;-80
2021/06/15 07:53:48;;;;;;;8.43;4.05;;;;;;;25.59;33.10;99250.02;2169146;82;21331;-79
2021/06/15 07:56:51;;;;;;;5.05;3.62;;;;;;;25.45;32.68;99254.61;2168947;82;21003;-80
2021/06/15 07:59:52;;;;;;;5.05;3.70;;;;;;;25.15;32.21;99255.88;2169939;82;20971;-81
2021/06/15 08:02:53;;;;;;;9.00;3.85;;;;;;;25.40;33.05;99248.13;2169877;82;21024;-80
2021/06/15 08:05:54;;;;;;;8.45;4.22;;;;;;;25.61;32.75;99248.14;2169574;82;21345;-81
2021/06/15 08:08:55;;;;;;;5.50;3.90;;;;;;;25.32;30.99;99248.04;2169343;81;21047;-81
2021/06/15 08:11:56;;;;;;;7.25;3.90;;;;;;;24.87;32.53;99256.06;2169488;82;21173;-80
2021/06/15 08:14:57;;;;;;;4.70;3.60;;;;;;;25.04;33.99;99254.95;2169140;82;20944;-80
2021/06/15 08:18:00;;;;;;;9.00;3.83;;;;;;;25.39;32.73;99249.05;2169774;82;20972;-81
2021/06/15 08:21:01;;;;;;;7.45;4.00;;;;;;;25.26;31.61;99250.50;2169700;82;20901;-79
2021/06/15 08:24:02;;;;;;;4.30;3.83;;;;;;;24.92;31.29;99258.08;2169486;82;20979;-80
2021/06/15 08:27:05;;;;;;;11.50;4.12;;;;;;;24.55;31.52;99259.98;2169673;82;20968;-80
2021/06/15 08:30:06;;;;;;;6.20;3.77;;;;;;;24.73;32.42;99257.47;2168974;82;21036;-79
2021/06/15 08:33:07;;;;;;;8.08;4.50;;;;;;;24.56;32.35;99259.05;2169019;82;21005;-79
2021/06/15 08:36:10;;;;;;;3.83;3.47;;;;;;;24.80;33.58;99261.23;2169466;82;21337;-80
2021/06/15 08:39:13;;;;;;;;;;;;;;;25.13;31.68;99261.25;2171748;82;20984;-80
2021/06/15 08:42:15;;;;;;;61.83;7.90;;;;;;;25.14;31.21;99260.79;2169840;82;20091;-79
2021/06/15 08:45:16;;;;;;;6.08;3.90;;;;;;;24.69;30.89;99249.17;2169497;82;21022;-80
2021/06/15 08:48:18;;;;;;;13.83;4.90;;;;;;;24.45;31.54;99254.13;2169037;82;21054;-78
2021/06/15 08:51:19;;;;;;;6.83;4.17;;;;;;;24.68;33.18;99242.10;2169010;82;21377;-80
2021/06/15 08:54:21;;;;;;;4.05;3.65;;;;;;;25.34;32.52;99243.03;2169937;82;20904;-81
2021/06/15 08:57:22;;;;;;;7.70;4.10;;;;;;;25.72;30.67;99236.55;2169502;82;20941;-80
2021/06/15 09:00:23;;;;;;;6.10;3.87;;;;;;;25.47;31.77;99238.05;2169707;82;21000;-79
2021/06/15 09:03:24;;;;;;;6.50;3.65;;;;;;;25.93;31.60;99236.95;2169952;82;20920;-80
2021/06/15 09:06:25;;;;;;;4.97;3.00;;;;;;;26.34;29.98;99236.47;2169832;82;20984;-80
2021/06/15 09:09:27;;;;;;;11.65;4.20;;;;;;;26.59;29.88;99228.16;2168351;81;21443;-80
2021/06/15 09:12:28;;;;;;;6.78;3.77;;;;;;;26.72;30.19;99226.24;2168982;82;21356;-79
2021/06/15 09:15:29;;;;;;;5.45;3.52;;;;;;;26.89;29.93;99227.67;2168549;82;20992;-79
2021/06/15 09:18:30;;;;;;;5.00;3.80;;;;;;;26.88;27.08;99229.95;2169441;82;21380;-79
2021/06/15 09:21:31;;;;;;;5.47;3.42;;;;;;;26.88;28.97;99232.63;2170190;82;20932;-80
2021/06/15 09:24:32;;;;;;;7.37;3.62;;;;;;;27.09;28.71;99233.42;2170331;82;21321;-79
2021/06/15 09:27:33;;;;;;;10.75;4.00;;;;;;;26.87;27.06;99230.39;2170251;82;21363;-80
2021/06/15 09:30:34;;;;;;;7.12;3.40;;;;;;;26.36;28.01;99232.39;2190478;81;21451;-80
2021/06/15 09:33:36;;;;;;;5.40;3.60;;;;;;;26.70;28.75;99229.00;2193736;81;20951;-79
2021/06/15 09:36:37;;;;;;;4.47;3.00;;;;;;;26.68;28.42;99225.99;2193358;81;20927;-79
2021/06/15 09:39:38;;;;;;;7.33;3.60;;;;;;;26.57;26.68;99222.02;2193168;79;21014;-80
2021/06/15 09:42:39;;;;;;;6.78;3.77;;;;;;;26.53;28.22;99223.10;2192775;81;21657;-80
2021/06/15 09:45:40;;;;;;;8.23;4.17;;;;;;;26.35;26.88;99218.61;2193117;81;20915;-80
2021/06/15 09:48:42;;;;;;;10.90;3.80;;;;;;;26.01;27.22;99214.77;2193067;81;21424;-79
2021/06/15 09:51:43;;;;;;;6.00;3.60;;;;;;;25.60;26.76;99217.00;2192189;81;20935;-80
2021/06/15 09:54:44;;;;;;;8.88;3.65;;;;;;;25.79;27.53;99217.97;2192720;81;21360;-81
2021/06/15 09:57:51;;;;;;;10.32;3.55;;;;;;;26.07;27.67;99210.08;2192805;81;20967;-82
2021/06/15 10:00:53;;;;;;;12.23;3.70;;;;;;;26.08;27.94;99210.48;2193067;81;20972;-81
2021/06/15 10:06:56;;;;;;;7.97;4.00;;;;;;;27.02;28.18;99215.45;2172310;81;20904;-82
2021/06/15 10:09:58;;;;;;;5.53;3.40;;;;;;;27.55;27.28;99210.06;2192736;81;21019;-80
2021/06/15 10:12:58;;;;;;;5.72;3.58;;;;;;;27.50;26.47;99203.20;2193279;81;21296;-82
2021/06/15 10:16:00;;;;;;;10.75;3.83;;;;;;;26.92;26.46;99204.75;2193333;81;21026;-82
2021/06/15 10:19:01;;;;;;;4.53;3.35;;;;;;;27.05;26.80;99197.02;2193158;81;21031;-82
2021/06/15 10:22:08;;;;;;;4.42;3.85;;;;;;;27.29;26.56;99197.12;2193269;81;20921;-81
2021/06/15 10:25:09;;;;;;;6.00;3.37;;;;;;;27.51;26.67;99195.55;2193404;81;20974;-83
2021/06/15 10:28:11;;;;;;;4.28;3.47;;;;;;;27.67;26.82;99192.97;2193057;81;20971;-81
2021/06/15 10:31:12;;;;;;;6.90;3.80;;;;;;;27.63;26.91;99183.35;2193085;81;20924;-81
2021/06/15 10:34:13;;;;;;;4.10;3.55;;;;;;;27.73;27.25;99184.13;2193464;81;20983;-81
2021/06/15 10:37:14;;;;;;;6.35;3.55;;;;;;;27.77;27.21;99182.19;2193785;81;20998;-82
2021/06/15 10:40:15;;;;;;;3.77;3.30;;;;;;;27.75;26.61;99183.61;2193499;80;21066;-83
2021/06/15 10:43:20;;;;;;;3.47;3.10;;;;;;;27.78;26.68;99182.58;2192877;81;20995;-83
2021/06/15 10:46:21;;;;;;;4.85;3.02;;;;;;;27.71;26.58;99182.00;2192608;81;20983;-84
2021/06/15 10:49:23;;;;;;;5.97;3.50;;;;;;;27.73;27.27;99176.55;2192708;81;21011;-81
2021/06/15 10:52:25;;;;;;;12.55;4.10;;;;;;;27.77;27.05;99180.38;2193046;81;20995;-81
2021/06/15 10:55:26;;;;;;;4.05;3.35;;;;;;;27.96;26.89;99182.07;2193065;81;20999;-81
2021/06/15 10:58:27;;;;;;;6.58;3.75;;;;;;;28.06;26.77;99171.23;2193125;81;21007;-80
2021/06/15 11:01:31;;;;;;;5.75;3.27;;;;;;;28.28;28.02;99173.16;2193785;81;21032;-81
2021/06/15 11:04:33;;;;;;;4.87;4.20;;;;;;;28.36;25.89;99170.06;2260780;79;20995;-81
2021/06/15 11:07:34;;;;;;;6.30;3.65;;;;;;;27.90;26.93;99164.02;2261589;79;20959;-78
2021/06/15 11:10:35;;;;;;;6.12;3.55;;;;;;;28.09;26.43;99164.36;2262079;79;21048;-78
2021/06/15 11:13:37;;;;;;;4.35;3.58;;;;;;;28.13;27.55;99161.42;2262105;79;20904;-79
2021/06/15 11:16:40;;;;;;;4.20;3.40;;;;;;;28.14;26.90;99154.23;2262062;79;20956;-79
2021/06/15 11:19:40;;;;;;;5.65;3.55;;;;;;;28.35;27.65;99151.73;2210367;81;20929;-79
2021/06/15 11:22:42;;;;;;;6.28;3.70;;;;;;;28.42;26.38;99153.13;2171911;82;20972;-80
2021/06/15 11:25:43;;;;;;;5.42;3.37;;;;;;;28.32;27.51;99150.56;2210571;80;21158;-81
2021/06/15 11:31:46;;;;;;;5.60;3.40;;;;;;;28.76;27.17;99149.42;2235822;79;20932;-82
2021/06/15 11:34:48;;;;;;;5.03;3.27;;;;;;;28.95;27.02;99143.88;2267249;79;20971;-82
2021/06/15 11:37:49;;;;;;;5.55;3.33;;;;;;;29.17;26.05;99134.94;2267180;79;20885;-82
2021/06/15 11:40:50;;;;;;;4.65;3.20;;;;;;;29.40;25.46;99128.66;2266661;77;20983;-81
2021/06/15 11:43:51;;;;;;;4.78;2.98;;;;;;;29.60;25.37;99128.86;2267007;79;20924;-79
2021/06/15 11:46:52;;;;;;;4.67;3.00;;;;;;;29.82;25.20;99125.70;2266874;79;20938;-77
2021/06/15 11:49:53;;;;;;;5.75;3.30;;;;;;;29.70;24.63;99133.58;2266162;79;21035;-81
2021/06/15 11:52:55;;;;;;;3.60;3.30;;;;;;;29.33;25.16;99126.82;2266826;79;21011;-82
2021/06/15 11:55:58;;;;;;;5.42;3.15;;;;;;;29.40;23.96;99122.80;2266895;79;20976;-81
2021/06/15 11:59:04;;;;;;;6.10;3.27;;;;;;;29.12;24.15;99119.56;2218708;80;20984;-81
2021/06/15 12:02:05;;;;;;;4.90;2.95;;;;;;;29.08;24.92;99120.70;2267315;78;20972;-81
2021/06/15 12:05:08;;;;;;;7.53;3.27;;;;;;;29.12;24.72;99125.42;2266706;79;21272;-81
2021/06/15 12:08:09;;;;;;;4.22;3.12;;;;;;;29.33;24.57;99121.92;2266485;79;20986;-80
2021/06/15 12:11:11;;;;;;;4.87;3.08;;;;;;;29.57;24.14;99121.84;2265985;77;21080;-81
2021/06/15 12:14:12;;;;;;;5.72;3.25;;;;;;;29.74;24.23;99118.97;2265810;79;21344;-80
2021/06/15 12:17:16;;;;;;;5.00;3.40;;;;;;;29.92;24.16;99114.27;2266353;79;20965;-82
2021/06/15 12:20:17;;;;;;;9.68;4.25;;;;;;;30.14;24.32;99113.80;2266352;79;20988;-83
2021/06/15 12:23:18;;;;;;;5.53;3.60;;;;;;;30.27;24.41;99109.36;2266607;79;21019;-81
2021/06/15 12:26:20;;;;;;;6.20;3.80;;;;;;;29.99;23.98;99117.44;2266884;79;21372;-80
2021/06/15 12:29:22;;;;;;;4.03;3.40;;;;;;;29.55;24.03;99104.06;2261928;79;20992;-81
2021/06/15 12:32:23;;;;;;;4.30;3.87;;;;;;;29.08;25.04;99103.23;2252789;79;20964;-81
2021/06/15 12:35:24;;;;;;;3.90;3.20;;;;;;;28.98;24.71;99102.53;2252607;79;21028;-81
2021/06/15 12:38:25;;;;;;;6.83;3.62;;;;;;;28.89;25.39;99097.70;2252803;79;20936;-83
2021/06/15 12:41:26;;;;;;;5.08;2.90;;;;;;;28.90;25.28;99096.27;2252642;79;21052;-77
2021/06/15 12:44:29;;;;;;;6.75;3.60;;;;;;;28.92;25.23;99089.45;2252257;79;20996;-82
2021/06/15 12:47:30;;;;;;;5.28;3.58;;;;;;;29.08;25.36;99091.14;2204599;81;20993;-83
2021/06/15 12:50:31;;;;;;;5.37;3.37;;;;;;;29.05;25.21;99091.33;2166539;82;21389;-82
2021/06/15 12:53:35;;;;;;;4.42;3.60;;;;;;;28.98;25.96;99085.06;2204085;81;20936;-81
2021/06/15 12:56:35;;;;;;;4.22;3.72;;;;;;;29.17;25.81;99083.00;2166722;82;20996;-82
2021/06/15 12:59:36;;;;;;;7.70;3.70;;;;;;;29.12;25.92;99084.63;2204497;81;21035;-83
2021/06/15 13:02:37;;;;;;;4.47;3.30;;;;;;;28.79;26.25;99081.22;2166697;82;20953;-83
2021/06/15 13:05:38;;;;;;;5.95;3.80;;;;;;;28.65;26.21;99080.69;2204956;81;20894;-82
2021/06/15 13:08:39;;;;;;;6.00;3.45;;;;;;;28.68;26.68;99079.16;2166584;82;20991;-82
2021/06/15 13:11:41;;;;;;;3.70;3.40;;;;;;;29.08;26.18;99076.36;2204414;81;21043;-81
2021/06/15 13:14:43;;;;;;;5.37;3.30;;;;;;;29.30;25.80;99082.64;2166567;82;21606;-82
2021/06/15 13:17:45;;;;;;;7.37;3.40;;;;;;;29.36;25.86;99075.55;2204731;81;20909;-83
2021/06/15 13:20:45;;;;;;;8.65;3.90;;;;;;;29.38;25.74;99074.11;2167003;82;20928;-81
2021/06/15 13:23:47;;;;;;;4.17;3.50;;;;;;;29.28;25.34;99067.56;2204589;81;20997;-82
2021/06/15 13:26:51;;;;;;;3.70;3.40;;;;;;;29.03;25.69;99064.16;2166689;82;20929;-82
2021/06/15 13:29:51;;;;;;;6.92;3.75;;;;;;;28.69;25.83;99056.72;2195522;80;20945;-82
2021/06/15 13:32:53;;;;;;;5.50;3.90;;;;;;;28.52;26.11;99049.62;2170485;81;20901;-83
2021/06/15 13:35:59;;;;;;;3.98;3.50;;;;;;;28.81;26.28;99048.41;2170605;82;21431;-82
2021/06/15 13:39:00;;;;;;;4.58;3.30;;;;;;;28.91;25.84;99046.95;2170478;82;20969;-83
2021/06/15 13:42:02;;;;;;;3.50;3.20;;;;;;;28.74;25.42;99052.42;2170946;82;21413;-82
2021/06/15 13:45:03;;;;;;;3.95;3.40;;;;;;;28.72;25.35;99047.62;2170300;82;21389;-82
2021/06/15 13:48:04;;;;;;;4.50;3.22;;;;;;;28.82;25.45;99048.33;2170265;82;20957;-82
2021/06/15 13:51:05;;;;;;;3.58;3.25;;;;;;;29.00;25.46;99051.77;2170188;82;20966;-82
2021/06/15 13:54:06;;;;;;;5.08;3.30;;;;;;;29.30;25.48;99045.48;2170459;82;21028;-83
2021/06/15 13:57:07;;;;;;;6.33;4.00;;;;;;;29.44;25.28;99043.70;2170115;82;20957;-82
2021/06/15 14:00:08;;;;;;;5.50;3.27;;;;;;;29.16;25.29;99043.64;2170439;82;20968;-82
2021/06/15 14:03:09;;;;;;;5.70;3.70;;;;;;;29.03;25.54;99044.86;2170340;82;20944;-82
2021/06/15 14:06:10;;;;;;;3.70;3.30;;;;;;;28.95;25.27;99047.15;2170473;82;21289;-81
2021/06/15 14:09:11;;;;;;;4.33;3.25;;;;;;;29.12;25.50;99040.28;2170681;82;20957;-81
2021/06/15 14:12:12;;;;;;;5.20;2.98;;;;;;;29.16;24.46;99041.82;2170407;82;21438;-80
2021/06/15 14:15:14;;;;;;;3.30;3.00;;;;;;;29.05;24.89;99038.05;2170275;82;20925;-84
2021/06/15 14:18:15;;;;;;;4.75;3.45;;;;;;;29.06;24.82;99031.24;2170212;82;20925;-81